Esquel, Argentina
Current Conditions -  °F | °C
As of 12:00 AM on Saturday 29 Nov 2014 (Local Time) from SCAP Reporting Station
Few Clouds Few Clouds  
Wind Chill: 37°   Ceiling: Unl
Heat Index: 43°   Visibility: NA
Dew Point: 34°   Wind: 9mph
Humidity: 70%   Direction: 180°S
Pressure: 30.12"   Gusts: NA
Location:  42.91°S, 71.32°W
Report Text: SCAP 290300Z AUTO 18008KT 100V250 //// // FEW043 06/01 Q1020
Loading
Personal Weather Stations






























Interactive Weather Map New forecast layout! Learn more

10-Day Weather Forecast

Advertisements
Track Severe Weather on mobile